createdAt,value
2018-09-26T00:00:24.385Z,20.3
2018-09-26T00:01:14.145Z,20.3
2018-09-26T00:02:03.404Z,20.3
2018-09-26T00:02:53.748Z,20.3
2018-09-26T00:03:43.512Z,20.3
2018-09-26T00:04:33.597Z,20.3
2018-09-26T00:05:24.248Z,20.3
2018-09-26T00:06:13.750Z,20.3
2018-09-26T00:07:04.599Z,20.3
2018-09-26T00:07:54.287Z,20.3
2018-09-26T00:08:44.185Z,20.3
2018-09-26T00:09:35.102Z,20.3
2018-09-26T00:10:24.247Z,20.3
2018-09-26T00:11:14.382Z,20.3
2018-09-26T00:12:04.859Z,20.3
2018-09-26T00:12:54.729Z,20.3
2018-09-26T00:13:44.246Z,20.3
2018-09-26T00:14:34.549Z,20.3
2018-09-26T00:15:24.998Z,20.3
2018-09-26T00:16:15.041Z,20.3
2018-09-26T00:17:04.497Z,20.3
2018-09-26T00:17:54.498Z,20.3
2018-09-26T00:18:44.705Z,20.3
2018-09-26T00:19:35.522Z,20.3
2018-09-26T00:20:24.256Z,20.3
2018-09-26T00:21:14.360Z,20.2
2018-09-26T00:22:04.884Z,20.2
2018-09-26T00:22:54.733Z,20.3
2018-09-26T00:23:44.986Z,20.3
2018-09-26T00:24:34.589Z,20.2
2018-09-26T00:25:25.731Z,20.2
2018-09-26T00:26:15.029Z,20.2
2018-09-26T00:27:05.291Z,20.2
2018-09-26T00:27:54.801Z,20.2
2018-09-26T00:28:46.001Z,20.3
2018-09-26T00:29:36.039Z,20.3
2018-09-26T00:30:26.141Z,20.2
2018-09-26T00:31:16.208Z,20.2
2018-09-26T00:32:05.731Z,20.2
2018-09-26T00:32:55.458Z,20.2
2018-09-26T00:33:46.093Z,20.2
2018-09-26T00:34:35.895Z,20.2
2018-09-26T00:35:26.494Z,20.2
2018-09-26T00:36:17.509Z,20.2
2018-09-26T00:55:29.485Z,19.9
2018-09-26T00:56:19.993Z,19.9
2018-09-26T00:57:09.032Z,19.8
2018-09-26T00:57:59.887Z,19.9
2018-09-26T00:58:49.444Z,19.9
2018-09-26T00:59:39.734Z,19.8
2018-09-26T01:00:31.579Z,19.9
2018-09-26T01:01:20.672Z,19.9
2018-09-26T01:02:10.480Z,19.9
2018-09-26T01:03:00.255Z,19.9
2018-09-26T01:03:50.569Z,19.9
2018-09-26T01:04:40.332Z,19.9
2018-09-26T01:05:31.594Z,19.9
2018-09-26T01:06:19.969Z,19.9
2018-09-26T01:07:10.596Z,19.9
2018-09-26T01:08:01.180Z,19.9
2018-09-26T01:08:50.931Z,19.9
2018-09-26T01:09:41.334Z,19.9
2018-09-26T01:10:31.056Z,20
2018-09-26T01:11:21.446Z,20
2018-09-26T01:12:11.039Z,20
2018-09-26T01:13:01.037Z,20
2018-09-26T01:13:51.251Z,20
2018-09-26T01:14:41.383Z,20
2018-09-26T01:15:31.118Z,20
2018-09-26T01:16:22.381Z,19.9
2018-09-26T01:17:11.891Z,20
2018-09-26T01:18:01.649Z,19.9
2018-09-26T01:18:51.721Z,20
2018-09-26T01:19:42.041Z,19.9
2018-09-26T01:20:32.286Z,20
2018-09-26T01:21:21.325Z,20
2018-09-26T01:22:12.484Z,19.9
2018-09-26T01:23:02.024Z,20
2018-09-26T01:23:51.753Z,20
2018-09-26T01:24:42.660Z,19.9
2018-09-26T01:25:32.838Z,20
2018-09-26T01:26:22.600Z,20
2018-09-26T01:27:12.044Z,20
2018-09-26T01:28:02.198Z,20
2018-09-26T01:28:52.110Z,20
2018-09-26T01:29:43.057Z,20
2018-09-26T01:30:32.292Z,19.9
2018-09-26T01:31:23.448Z,19.9
2018-09-26T01:32:12.578Z,19.9
2018-09-26T01:33:01.910Z,20
2018-09-26T01:33:52.808Z,20
2018-09-26T01:34:42.830Z,20
2018-09-26T01:35:33.173Z,19.9
2018-09-26T01:36:23.534Z,19.9
2018-09-26T01:37:13.378Z,20
2018-09-26T01:38:03.110Z,20
2018-09-26T01:38:53.163Z,20
2018-09-26T01:39:43.234Z,19.9
2018-09-26T01:40:32.739Z,19.9
2018-09-26T01:41:23.517Z,19.9
2018-09-26T01:42:13.717Z,19.9
2018-09-26T01:43:04.039Z,19.9
2018-09-26T01:43:52.737Z,19.9
2018-09-26T01:44:42.774Z,19.9
2018-09-26T01:45:33.367Z,19.9
2018-09-26T01:46:23.751Z,19.9
2018-09-26T01:47:14.322Z,19.9
2018-09-26T01:48:03.094Z,19.9
2018-09-26T01:48:53.633Z,19.9
2018-09-26T01:49:43.959Z,19.9
2018-09-26T01:50:33.994Z,19.9
2018-09-26T01:51:24.156Z,19.9
2018-09-26T01:52:14.076Z,19.9
2018-09-26T01:53:04.255Z,19.9
2018-09-26T01:53:54.234Z,19.9
2018-09-26T01:54:44.616Z,19.9
2018-09-26T01:55:34.728Z,19.9
2018-09-26T01:56:23.968Z,19.9
2018-09-26T01:57:15.116Z,19.9
2018-09-26T01:58:04.658Z,19.9
2018-09-26T01:58:54.933Z,19.9
2018-09-26T01:59:45.006Z,19.9
2018-09-26T02:00:34.752Z,19.9
2018-09-26T02:01:24.843Z,19.9
2018-09-26T02:02:14.969Z,19.9
2018-09-26T02:03:05.462Z,19.9
2018-09-26T02:03:55.044Z,19.9
2018-09-26T02:04:44.561Z,19.9
2018-09-26T02:05:34.615Z,19.9
2018-09-26T02:06:25.211Z,19.9
2018-09-26T02:07:15.236Z,19.9
2018-09-26T02:08:06.145Z,19.9
2018-09-26T02:08:54.865Z,19.9
2018-09-26T02:09:45.473Z,19.9
2018-09-26T02:10:35.533Z,19.9
2018-09-26T02:11:24.170Z,19.9
2018-09-26T02:12:15.938Z,19.9
2018-09-26T02:13:05.662Z,19.9
2018-09-26T02:13:56.505Z,19.9
2018-09-26T02:14:46.350Z,19.9
2018-09-26T02:15:36.192Z,19.9
2018-09-26T02:16:25.891Z,19.9
2018-09-26T02:17:15.980Z,19.9
2018-09-26T02:18:06.113Z,19.9
2018-09-26T02:18:55.360Z,19.9
2018-09-26T02:19:45.892Z,19.9
2018-09-26T02:20:36.000Z,19.8
2018-09-26T02:21:26.587Z,19.8
2018-09-26T02:22:16.915Z,19.9
2018-09-26T02:23:05.612Z,19.8
2018-09-26T02:23:56.787Z,19.8
2018-09-26T02:24:47.109Z,19.8
2018-09-26T02:25:36.594Z,19.8
2018-09-26T02:26:26.668Z,19.8
2018-09-26T02:27:16.732Z,19.8
2018-09-26T02:28:06.577Z,19.8
2018-09-26T02:28:57.766Z,19.8
2018-09-26T02:29:47.187Z,19.8
2018-09-26T02:30:36.787Z,19.8
2018-09-26T02:31:26.270Z,19.8
2018-09-26T02:32:16.569Z,19.8
2018-09-26T02:33:07.246Z,19.8
2018-09-26T02:33:57.587Z,19.8
2018-09-26T02:34:47.007Z,19.8
2018-09-26T02:35:37.927Z,19.8
2018-09-26T02:36:27.393Z,19.8
2018-09-26T02:37:18.071Z,19.8
2018-09-26T02:38:08.026Z,19.8
2018-09-26T02:38:57.842Z,19.8
2018-09-26T02:39:47.758Z,19.8
2018-09-26T02:40:37.448Z,19.8
2018-09-26T02:41:26.991Z,19.8
2018-09-26T02:42:17.278Z,19.8
2018-09-26T02:43:07.201Z,19.8
2018-09-26T02:43:58.336Z,19.8
2018-09-26T02:44:48.008Z,19.8
2018-09-26T02:45:38.431Z,19.8
2018-09-26T02:46:28.711Z,19.8
2018-09-26T02:47:18.248Z,19.8
2018-09-26T02:48:08.887Z,19.8
2018-09-26T02:48:58.904Z,19.8
2018-09-26T02:49:48.246Z,19.8
2018-09-26T02:50:38.466Z,19.8
2018-09-26T02:51:28.495Z,19.8
2018-09-26T02:52:18.308Z,19.8
2018-09-26T02:53:09.190Z,19.8
2018-09-26T02:53:59.243Z,19.8
2018-09-26T02:54:47.902Z,19.8
2018-09-26T02:55:39.110Z,19.8
2018-09-26T02:56:28.360Z,19.8
2018-09-26T02:57:19.260Z,19.8
2018-09-26T02:58:08.257Z,19.8
2018-09-26T02:58:58.800Z,19.8
2018-09-26T02:59:49.489Z,19.8
2018-09-26T03:00:39.570Z,19.8
2018-09-26T03:01:28.699Z,19.8
2018-09-26T03:02:19.650Z,19.8
2018-09-26T03:03:09.378Z,19.8
2018-09-26T03:04:00.639Z,19.8
2018-09-26T03:04:49.527Z,19.8
2018-09-26T03:05:39.917Z,19.8
2018-09-26T03:06:29.095Z,19.8
2018-09-26T03:07:18.870Z,19.8
2018-09-26T03:08:09.232Z,19.8
2018-09-26T03:08:59.877Z,19.8
2018-09-26T03:09:50.152Z,19.8
2018-09-26T03:10:39.174Z,19.8
2018-09-26T03:11:29.452Z,19.8
2018-09-26T03:12:18.898Z,19.8
2018-09-26T03:13:09.859Z,19.8
2018-09-26T03:14:01.323Z,19.8
2018-09-26T03:14:50.588Z,19.8
2018-09-26T03:15:41.015Z,19.8
2018-09-26T03:16:29.275Z,19.8
2018-09-26T03:17:19.896Z,19.8
2018-09-26T03:18:10.481Z,19.8
2018-09-26T03:19:00.911Z,19.8
2018-09-26T03:19:50.752Z,19.8
2018-09-26T03:20:40.984Z,19.8
2018-09-26T03:21:30.733Z,19.8
2018-09-26T03:22:21.384Z,19.8
2018-09-26T03:23:10.299Z,19.8
2018-09-26T03:24:01.490Z,19.8
2018-09-26T03:24:51.731Z,19.8
2018-09-26T03:25:41.935Z,19.8
2018-09-26T03:26:30.853Z,19.8
2018-09-26T03:27:21.435Z,19.7
2018-09-26T03:28:11.496Z,19.8
2018-09-26T03:29:00.275Z,19.7
2018-09-26T03:29:50.898Z,19.8
2018-09-26T03:30:41.105Z,19.8
2018-09-26T03:31:30.456Z,19.7
2018-09-26T03:32:20.896Z,19.7
2018-09-26T03:33:10.866Z,19.7
2018-09-26T03:34:01.431Z,19.7
2018-09-26T03:34:51.237Z,19.7
2018-09-26T03:35:42.081Z,19.7
2018-09-26T03:36:32.395Z,19.7
2018-09-26T03:37:22.196Z,19.7
2018-09-26T03:38:11.440Z,19.7
2018-09-26T03:39:02.048Z,19.7
2018-09-26T03:39:51.546Z,19.7
2018-09-26T03:40:42.184Z,19.7
2018-09-26T03:41:32.794Z,19.7
2018-09-26T03:42:22.009Z,19.6
2018-09-26T03:43:12.342Z,19.6
2018-09-26T03:44:02.955Z,19.6
2018-09-26T03:44:52.189Z,19.6
2018-09-26T03:45:41.968Z,19.6
2018-09-26T03:46:32.942Z,19.6
2018-09-26T03:47:23.251Z,19.6
2018-09-26T03:48:12.952Z,19.6
2018-09-26T03:49:02.497Z,19.6
2018-09-26T03:49:52.031Z,19.6
2018-09-26T03:50:43.176Z,19.6
2018-09-26T03:51:33.231Z,19.6
2018-09-26T03:52:23.039Z,19.6
2018-09-26T03:53:12.542Z,19.6
2018-09-26T03:54:02.871Z,19.6
2018-09-26T03:54:52.873Z,19.6
2018-09-26T03:55:43.741Z,19.6
2018-09-26T03:56:33.384Z,19.6
2018-09-26T03:57:23.691Z,19.6
2018-09-26T03:58:13.744Z,19.6
2018-09-26T03:59:03.826Z,19.6
2018-09-26T03:59:52.966Z,19.6
2018-09-26T04:00:43.078Z,19.6
2018-09-26T04:01:34.229Z,19.6
2018-09-26T04:02:24.092Z,19.6
2018-09-26T04:03:13.865Z,19.6
2018-09-26T04:04:04.538Z,19.6
2018-09-26T04:04:54.768Z,19.6
2018-09-26T04:05:44.844Z,19.6
2018-09-26T04:06:33.860Z,19.6
2018-09-26T04:07:24.368Z,19.6
2018-09-26T04:08:14.142Z,19.6
2018-09-26T04:09:04.323Z,19.6
2018-09-26T04:09:54.300Z,19.6
2018-09-26T04:10:43.673Z,19.6
2018-09-26T04:11:33.375Z,19.6
2018-09-26T04:12:24.274Z,19.6
2018-09-26T04:13:15.215Z,19.6
2018-09-26T04:14:04.410Z,19.6
2018-09-26T04:14:54.691Z,19.6
2018-09-26T04:15:46.045Z,19.6
2018-09-26T04:16:34.837Z,19.6
2018-09-26T04:17:24.930Z,19.6
2018-09-26T04:18:14.652Z,19.6
2018-09-26T04:19:05.293Z,19.6
2018-09-26T04:19:53.927Z,19.6
2018-09-26T04:20:45.216Z,19.6
2018-09-26T04:21:34.595Z,19.5
2018-09-26T04:22:25.553Z,19.5
2018-09-26T04:23:15.263Z,19.5
2018-09-26T04:24:05.107Z,19.5
2018-09-26T04:24:54.555Z,19.5
2018-09-26T04:25:46.072Z,19.5
2018-09-26T04:26:38.164Z,19.5
2018-09-26T04:27:28.036Z,19.5
2018-09-26T04:28:15.433Z,19.5
2018-09-26T04:29:05.813Z,19.5
2018-09-26T04:29:56.802Z,19.5
2018-09-26T04:30:46.577Z,19.5
2018-09-26T04:31:36.725Z,19.4
2018-09-26T04:32:25.893Z,19.4
2018-09-26T04:33:21.952Z,19.5
2018-09-26T04:34:07.146Z,19.4
2018-09-26T04:34:56.197Z,19.4
2018-09-26T04:35:46.524Z,19.5
2018-09-26T04:36:37.034Z,19.5
2018-09-26T04:37:26.761Z,19.5
2018-09-26T04:38:15.826Z,19.5
2018-09-26T04:39:05.966Z,19.5
2018-09-26T04:39:56.769Z,19.5
2018-09-26T04:40:45.133Z,19.4
2018-09-26T04:41:37.193Z,19.5
2018-09-26T04:42:26.736Z,19.4
2018-09-26T04:43:18.450Z,19.4
2018-09-26T04:44:06.528Z,19.4
2018-09-26T04:44:56.889Z,19.4
2018-09-26T04:45:46.341Z,19.4
2018-09-26T04:46:37.661Z,19.4
2018-09-26T04:47:27.343Z,19.5
2018-09-26T04:48:17.636Z,19.5
2018-09-26T04:49:07.201Z,19.4
2018-09-26T04:49:57.557Z,19.4
2018-09-26T04:50:47.565Z,19.4
2018-09-26T04:51:37.052Z,19.4
2018-09-26T04:52:27.135Z,19.4
2018-09-26T04:53:17.418Z,19.4
2018-09-26T04:54:08.194Z,19.4
2018-09-26T04:54:57.127Z,19.4
2018-09-26T04:55:47.696Z,19.4
2018-09-26T04:56:37.515Z,19.4
2018-09-26T04:57:28.068Z,19.4
2018-09-26T04:58:18.300Z,19.4
2018-09-26T04:59:07.183Z,19.4
2018-09-26T04:59:57.353Z,19.4
2018-09-26T05:00:47.672Z,19.4
2018-09-26T05:01:37.783Z,19.4
2018-09-26T05:02:28.002Z,19.4
2018-09-26T05:03:17.742Z,19.4
2018-09-26T05:04:07.742Z,19.4
2018-09-26T05:04:57.609Z,19.4
2018-09-26T05:05:47.968Z,19.4
2018-09-26T05:06:37.653Z,19.4
2018-09-26T05:07:28.855Z,19.4
2018-09-26T05:24:20.484Z,19.2
2018-09-26T05:25:10.035Z,19.2
2018-09-26T05:25:59.956Z,19.2
2018-09-26T05:26:50.211Z,19.2
2018-09-26T05:27:40.579Z,19.2
2018-09-26T05:28:30.379Z,19.3
2018-09-26T05:29:20.213Z,19.3
2018-09-26T05:30:10.197Z,19.3
2018-09-26T05:31:00.211Z,19.3
2018-09-26T05:31:50.858Z,19.3
2018-09-26T05:32:40.651Z,19.3
2018-09-26T05:33:30.184Z,19.3
2018-09-26T05:34:21.077Z,19.3
2018-09-26T05:35:11.356Z,19.3
2018-09-26T05:36:00.777Z,19.3
2018-09-26T05:36:51.250Z,19.3
2018-09-26T05:37:41.560Z,19.4
2018-09-26T05:38:31.056Z,19.4
2018-09-26T05:39:21.120Z,19.4
2018-09-26T05:40:11.483Z,19.4
2018-09-26T05:41:00.618Z,19.4
2018-09-26T05:41:53.343Z,19.4
2018-09-26T05:42:41.583Z,19.4
2018-09-26T05:43:31.963Z,19.4
2018-09-26T05:44:21.280Z,19.4
2018-09-26T05:45:12.408Z,19.4
2018-09-26T05:46:02.507Z,19.4
2018-09-26T05:46:52.111Z,19.4
2018-09-26T05:47:42.369Z,19.4
2018-09-26T05:48:31.542Z,19.4
2018-09-26T05:49:22.494Z,19.4
2018-09-26T05:50:12.017Z,19.4
2018-09-26T05:51:02.568Z,19.4
2018-09-26T05:51:51.747Z,19.4
2018-09-26T05:52:42.909Z,19.4
2018-09-26T05:53:32.978Z,19.4
2018-09-26T05:54:22.192Z,19.4
2018-09-26T05:55:13.070Z,19.4
2018-09-26T05:56:02.805Z,19.4
2018-09-26T05:56:51.870Z,19.4
2018-09-26T05:57:42.185Z,19.4
2018-09-26T05:58:31.482Z,19.4
2018-09-26T05:59:22.795Z,19.4
2018-09-26T06:00:13.403Z,19.4
2018-09-26T06:01:04.217Z,19.4
2018-09-26T06:01:54.753Z,19.4
2018-09-26T06:02:42.896Z,19.4
2018-09-26T06:03:32.081Z,19.4
2018-09-26T06:04:23.447Z,19.4
2018-09-26T06:05:12.879Z,19.5
2018-09-26T06:06:03.641Z,19.4
2018-09-26T06:06:53.001Z,19.5
2018-09-26T06:07:42.695Z,19.5
2018-09-26T06:08:31.688Z,19.4
2018-09-26T06:09:23.364Z,19.5
2018-09-26T06:10:13.456Z,19.5
2018-09-26T06:11:03.525Z,19.5
2018-09-26T06:11:53.213Z,19.5
2018-09-26T06:12:44.677Z,19.5
2018-09-26T06:13:34.173Z,19.5
2018-09-26T06:14:23.781Z,19.5
2018-09-26T06:15:14.277Z,19.5
2018-09-26T06:16:04.230Z,19.5
2018-09-26T06:16:54.688Z,19.5
2018-09-26T06:17:43.837Z,19.5
2018-09-26T06:18:34.579Z,19.5
2018-09-26T06:19:23.793Z,19.5
2018-09-26T06:20:13.293Z,19.5
2018-09-26T06:21:03.289Z,19.5
2018-09-26T06:21:54.770Z,19.5
2018-09-26T06:22:44.085Z,19.5
2018-09-26T06:23:34.580Z,19.5
2018-09-26T06:24:24.183Z,19.5
2018-09-26T06:25:14.058Z,19.5
2018-09-26T06:26:04.385Z,19.5
2018-09-26T06:26:53.667Z,19.5
2018-09-26T06:27:45.050Z,19.5
2018-09-26T06:28:33.399Z,19.5
2018-09-26T06:29:24.854Z,19.5
2018-09-26T06:30:14.972Z,19.5
2018-09-26T06:31:04.730Z,19.5
2018-09-26T06:31:54.442Z,19.5
2018-09-26T06:32:44.765Z,19.5
2018-09-26T06:33:35.402Z,19.4
2018-09-26T06:34:24.679Z,19.4
2018-09-26T06:35:15.174Z,19.4
2018-09-26T06:36:05.855Z,19.4
2018-09-26T06:36:55.112Z,19.5
2018-09-26T06:37:45.665Z,19.5
2018-09-26T06:38:35.211Z,19.5
2018-09-26T06:39:25.877Z,19.5
2018-09-26T06:40:16.246Z,19.5
2018-09-26T06:41:04.852Z,19.5
2018-09-26T06:41:55.766Z,19.5
2018-09-26T06:42:45.564Z,19.5
2018-09-26T06:43:36.126Z,19.5
2018-09-26T06:44:25.408Z,19.5
2018-09-26T06:45:16.482Z,19.5
2018-09-26T06:46:06.191Z,19.5
2018-09-26T06:46:56.412Z,19.5
2018-09-26T06:47:46.557Z,19.5
2018-09-26T06:48:35.644Z,19.6
2018-09-26T06:49:26.526Z,19.5
2018-09-26T06:50:16.921Z,19.5
2018-09-26T06:51:06.663Z,19.5
2018-09-26T06:51:56.213Z,19.6
2018-09-26T06:52:46.860Z,19.6
2018-09-26T06:53:37.380Z,19.5
2018-09-26T06:54:27.168Z,19.5
2018-09-26T06:55:17.163Z,19.5
2018-09-26T06:56:07.012Z,19.5
2018-09-26T06:56:56.264Z,19.5
2018-09-26T06:57:46.920Z,19.5
2018-09-26T06:58:37.438Z,19.5
2018-09-26T06:59:27.324Z,19.5
2018-09-26T07:00:18.801Z,19.5
2018-09-26T07:01:07.121Z,19.6
2018-09-26T07:01:57.408Z,19.6
2018-09-26T07:02:47.542Z,19.7
2018-09-26T07:03:37.236Z,19.8
2018-09-26T07:04:27.565Z,19.8
2018-09-26T07:05:17.738Z,19.8
2018-09-26T07:06:07.465Z,19.9
2018-09-26T07:06:57.803Z,19.9
2018-09-26T07:07:47.793Z,19.9
2018-09-26T07:08:37.333Z,19.9
2018-09-26T07:09:27.908Z,19.9
2018-09-26T07:10:17.818Z,19.9
2018-09-26T07:11:08.620Z,19.9
2018-09-26T07:11:57.281Z,19.9
2018-09-26T07:12:47.905Z,19.9
2018-09-26T07:13:38.600Z,19.9
2018-09-26T07:14:28.329Z,19.9
2018-09-26T07:15:19.009Z,19.9
2018-09-26T07:16:08.696Z,20
2018-09-26T07:16:57.500Z,20
2018-09-26T07:17:49.117Z,20
2018-09-26T07:18:38.915Z,20
2018-09-26T07:19:28.173Z,20
2018-09-26T07:20:18.777Z,20
2018-09-26T07:21:09.137Z,20
2018-09-26T07:21:58.634Z,20
2018-09-26T07:22:48.400Z,20
2018-09-26T07:23:38.777Z,19.9
2018-09-26T07:24:28.580Z,19.9
2018-09-26T07:25:19.421Z,19.9
2018-09-26T07:26:08.919Z,20
2018-09-26T07:26:59.104Z,20
2018-09-26T07:27:49.880Z,20.1
2018-09-26T07:28:38.870Z,20.1
2018-09-26T07:29:29.631Z,20.1
2018-09-26T07:30:19.704Z,20.1
2018-09-26T07:31:09.859Z,20.1
2018-09-26T07:31:59.646Z,20.1
2018-09-26T07:32:50.032Z,20.1
2018-09-26T07:33:39.474Z,20.1
2018-09-26T07:34:30.102Z,20.1
2018-09-26T07:35:19.870Z,20.2
2018-09-26T07:36:09.714Z,20.1
2018-09-26T07:37:00.551Z,20.1
2018-09-26T07:37:50.063Z,20.1
2018-09-26T07:38:40.974Z,20.1
2018-09-26T07:39:30.391Z,20.1
2018-09-26T07:40:20.294Z,20.1
2018-09-26T07:41:09.709Z,20.2
2018-09-26T07:42:00.374Z,20.2
2018-09-26T07:42:48.797Z,20.2
2018-09-26T07:43:40.303Z,20.2
2018-09-26T07:44:29.909Z,20.2
2018-09-26T07:45:19.522Z,20.1
2018-09-26T07:46:08.737Z,20.1
2018-09-26T07:47:00.052Z,20.2
2018-09-26T07:47:49.445Z,20.2
2018-09-26T07:48:39.480Z,20.3
2018-09-26T07:49:29.345Z,20.2
2018-09-26T07:50:19.430Z,20.2
2018-09-26T07:51:09.250Z,20.2
2018-09-26T07:51:59.301Z,20.3
2018-09-26T07:52:49.563Z,20.3
2018-09-26T07:53:39.518Z,20.3
2018-09-26T07:54:29.835Z,20.3
2018-09-26T07:55:20.445Z,20.3
2018-09-26T07:56:10.083Z,20.3
2018-09-26T07:56:59.908Z,20.3
2018-09-26T07:57:50.225Z,20.3
2018-09-26T07:58:40.630Z,20.3
2018-09-26T07:59:31.432Z,20.4
2018-09-26T08:00:21.485Z,20.4
2018-09-26T08:01:12.065Z,20.4
2018-09-26T08:02:01.300Z,20.3
2018-09-26T08:02:51.412Z,20.3
2018-09-26T08:03:41.380Z,20.4
2018-09-26T08:04:32.655Z,20.4
2018-09-26T08:05:21.241Z,20.4
2018-09-26T08:06:12.865Z,20.4
2018-09-26T08:07:01.638Z,20.4
2018-09-26T08:07:51.802Z,20.4
2018-09-26T08:08:41.299Z,20.4
2018-09-26T08:09:31.364Z,20.4
2018-09-26T08:10:21.952Z,20.5
2018-09-26T08:11:12.662Z,20.5
2018-09-26T08:12:03.299Z,20.5
2018-09-26T08:12:52.642Z,20.5
2018-09-26T08:13:42.694Z,20.5
2018-09-26T08:14:33.527Z,20.5
2018-09-26T08:15:22.086Z,20.5
2018-09-26T08:16:12.625Z,20.6
2018-09-26T08:17:02.747Z,20.6
2018-09-26T08:17:52.417Z,20.6
2018-09-26T08:18:45.185Z,20.6
2018-09-26T08:19:32.576Z,20.6
2018-09-26T08:20:22.927Z,20.6
2018-09-26T08:21:12.794Z,20.6
2018-09-26T08:22:03.159Z,20.5
2018-09-26T08:22:53.201Z,20.5
2018-09-26T08:23:44.121Z,20.5
2018-09-26T08:24:34.330Z,20.6
2018-09-26T08:25:22.710Z,20.6
2018-09-26T08:26:12.549Z,20.5
2018-09-26T08:27:04.225Z,20.5
2018-09-26T08:27:53.487Z,20.4
2018-09-26T08:28:43.503Z,20.5
2018-09-26T08:29:33.320Z,20.5
2018-09-26T08:30:24.018Z,20.5
2018-09-26T08:31:13.751Z,20.5
2018-09-26T08:32:04.044Z,20.5
2018-09-26T08:32:53.821Z,20.4
2018-09-26T08:33:43.926Z,20.4
2018-09-26T08:34:34.535Z,20.4
2018-09-26T08:35:24.833Z,20.4
2018-09-26T08:36:14.145Z,20.4
2018-09-26T08:37:04.658Z,20.4
2018-09-26T08:37:53.722Z,20.4
2018-09-26T08:38:44.118Z,20.4
2018-09-26T08:39:35.377Z,20.4
2018-09-26T08:40:24.672Z,20.4
2018-09-26T08:41:15.290Z,20.4
2018-09-26T08:42:04.813Z,20.3
2018-09-26T08:42:54.082Z,20.3
2018-09-26T08:43:44.475Z,20.3
2018-09-26T08:44:34.948Z,20.3
2018-09-26T08:45:25.316Z,20.2
2018-09-26T08:46:15.036Z,20.3
2018-09-26T08:47:05.150Z,20.3
2018-09-26T08:47:54.917Z,20.3
2018-09-26T08:48:45.825Z,20.3
2018-09-26T08:49:35.397Z,20.3
2018-09-26T08:50:25.809Z,20.3
2018-09-26T08:51:15.036Z,20.3
2018-09-26T08:52:04.781Z,20.3
2018-09-26T08:52:55.889Z,20.4
2018-09-26T08:53:47.190Z,20.4
2018-09-26T08:54:36.241Z,20.4
2018-09-26T08:55:26.083Z,20.3
2018-09-26T08:56:16.334Z,20.3
2018-09-26T08:57:05.410Z,20.3
2018-09-26T08:57:55.691Z,20.2
2018-09-26T08:58:45.701Z,20.2
2018-09-26T08:59:37.474Z,20.2
2018-09-26T09:00:26.022Z,20.1
2018-09-26T09:01:15.733Z,20.1
2018-09-26T09:02:05.938Z,20.1
2018-09-26T09:02:55.595Z,20.1
2018-09-26T09:03:46.625Z,20.1
2018-09-26T09:04:36.795Z,20.1
2018-09-26T09:05:26.733Z,20.1
2018-09-26T09:06:18.384Z,20
2018-09-26T09:07:06.335Z,20
2018-09-26T09:07:57.240Z,20
2018-09-26T09:08:46.798Z,19.9
2018-09-26T09:09:37.418Z,19.9
2018-09-26T09:10:27.160Z,19.9
2018-09-26T09:11:17.263Z,19.9
2018-09-26T09:12:06.686Z,19.9
2018-09-26T09:12:56.797Z,19.9
2018-09-26T09:13:47.341Z,19.9
2018-09-26T09:14:40.503Z,19.9
2018-09-26T09:15:28.239Z,19.9
2018-09-26T09:16:16.570Z,19.9
2018-09-26T09:17:06.971Z,19.9
2018-09-26T09:17:58.279Z,19.9
2018-09-26T09:18:47.593Z,19.9
2018-09-26T09:19:37.367Z,20
2018-09-26T09:20:28.071Z,20
2018-09-26T09:21:17.634Z,20
2018-09-26T09:22:07.412Z,20
2018-09-26T09:38:55.731Z,19.9
2018-09-26T09:39:45.456Z,19.9
2018-09-26T09:40:35.179Z,19.9
2018-09-26T09:41:24.699Z,19.9
2018-09-26T09:42:14.656Z,19.9
2018-09-26T09:43:05.116Z,20
2018-09-26T09:43:56.953Z,20
2018-09-26T09:44:45.806Z,20
2018-09-26T09:45:35.518Z,20
2018-09-26T09:46:25.336Z,20
2018-09-26T09:47:15.478Z,20
2018-09-26T09:48:06.034Z,20
2018-09-26T09:48:56.536Z,20.1
2018-09-26T09:49:45.770Z,20.1
2018-09-26T09:50:35.956Z,20
2018-09-26T09:51:26.671Z,20
2018-09-26T09:52:15.440Z,20.1
2018-09-26T09:53:06.141Z,20.1
2018-09-26T09:53:56.118Z,20.1
2018-09-26T09:54:46.201Z,20.1
2018-09-26T09:55:36.534Z,20.2
2018-09-26T09:56:27.306Z,20.3
2018-09-26T09:57:16.093Z,20.3
2018-09-26T09:58:06.798Z,20.3
2018-09-26T09:58:56.500Z,20.3
2018-09-26T09:59:46.629Z,20.3
2018-09-26T10:00:36.081Z,20.3
2018-09-26T10:01:27.325Z,20.3
2018-09-26T10:02:18.513Z,20.3
2018-09-26T10:03:09.669Z,20.3
2018-09-26T10:03:58.185Z,20.3
2018-09-26T10:04:46.918Z,20.3
2018-09-26T10:05:36.700Z,20.3
2018-09-26T10:06:26.769Z,20.3
2018-09-26T10:07:17.403Z,20.3
2018-09-26T10:08:07.083Z,20.3
2018-09-26T10:08:58.225Z,20.3
2018-09-26T10:09:47.658Z,20.3
2018-09-26T10:10:36.807Z,20.3
2018-09-26T10:11:27.710Z,20.3
2018-09-26T10:12:17.799Z,20.3
2018-09-26T10:13:07.235Z,20.3
2018-09-26T10:13:56.824Z,20.3
2018-09-26T10:14:47.936Z,20.3
2018-09-26T10:15:38.922Z,20.3
2018-09-26T10:16:28.100Z,20.3
2018-09-26T10:17:17.311Z,20.3
2018-09-26T10:18:07.932Z,20.3
2018-09-26T10:18:57.440Z,20.3
2018-09-26T10:19:47.821Z,20.4
2018-09-26T10:20:38.137Z,20.4
2018-09-26T10:21:28.575Z,20.4
2018-09-26T10:22:18.556Z,20.4
2018-09-26T10:23:08.015Z,20.4
2018-09-26T10:23:58.363Z,20.4
2018-09-26T10:24:49.009Z,20.3
2018-09-26T10:25:39.034Z,20.3
2018-09-26T10:26:30.017Z,20.3
2018-09-26T10:27:19.190Z,20.3
2018-09-26T10:28:08.691Z,20.3
2018-09-26T10:28:59.012Z,20.3
2018-09-26T10:29:49.176Z,20.3
2018-09-26T10:30:38.696Z,20.3
2018-09-26T10:31:29.226Z,20.3
2018-09-26T10:32:19.020Z,20.3
2018-09-26T10:33:09.666Z,20.3
2018-09-26T10:33:59.713Z,20.2
2018-09-26T10:34:48.808Z,20.2
2018-09-26T10:35:39.874Z,20.2
2018-09-26T10:36:29.906Z,20.2
2018-09-26T10:37:19.751Z,20.3
2018-09-26T10:38:10.070Z,20.2
2018-09-26T10:38:59.986Z,20.3
2018-09-26T10:39:49.681Z,20.3
2018-09-26T10:40:39.637Z,20.3
2018-09-26T10:41:29.668Z,20.3
2018-09-26T10:42:19.407Z,20.2
2018-09-26T10:43:09.775Z,20.1
2018-09-26T10:44:00.123Z,20.1
2018-09-26T10:44:50.775Z,20.1
2018-09-26T10:45:40.270Z,20
2018-09-26T10:46:31.010Z,20.1
2018-09-26T10:47:20.088Z,20.1
2018-09-26T10:48:09.903Z,20.1
2018-09-26T10:49:00.320Z,20.1
2018-09-26T10:49:50.243Z,20.1
2018-09-26T10:50:40.622Z,20.1
2018-09-26T10:51:30.931Z,20.1
2018-09-26T10:52:20.713Z,20
2018-09-26T10:53:10.062Z,19.9
2018-09-26T10:53:59.697Z,19.9
2018-09-26T10:54:50.869Z,19.9
2018-09-26T10:55:41.204Z,19.9
2018-09-26T10:56:32.319Z,19.9
2018-09-26T10:57:20.294Z,20
2018-09-26T10:58:11.353Z,20
2018-09-26T10:59:01.147Z,19.9
2018-09-26T10:59:50.984Z,19.9
2018-09-26T11:00:41.812Z,20
2018-09-26T11:01:31.700Z,20
2018-09-26T11:02:22.781Z,19.9
2018-09-26T11:03:10.991Z,19.9
2018-09-26T11:04:01.260Z,20
2018-09-26T11:04:51.659Z,20.1
2018-09-26T11:05:41.474Z,20
2018-09-26T11:06:31.799Z,20
2018-09-26T11:07:21.206Z,20.1
2018-09-26T11:08:12.563Z,20.1
2018-09-26T11:09:01.420Z,20.1
2018-09-26T11:09:51.734Z,20.1
2018-09-26T11:10:41.581Z,20.1
2018-09-26T11:11:31.516Z,20
2018-09-26T11:12:22.674Z,20
2018-09-26T11:13:12.549Z,20.1
2018-09-26T11:14:01.143Z,20.1
2018-09-26T11:14:50.968Z,20.1
2018-09-26T11:15:42.813Z,20.1
2018-09-26T11:16:33.358Z,20
2018-09-26T11:17:21.951Z,20
2018-09-26T11:18:12.974Z,19.9
2018-09-26T11:19:04.196Z,19.9
2018-09-26T11:19:52.410Z,19.9
2018-09-26T11:20:43.721Z,19.9
2018-09-26T11:21:31.758Z,19.9
2018-09-26T11:22:23.367Z,19.9
2018-09-26T11:23:13.058Z,19.9
2018-09-26T11:24:03.043Z,19.9
2018-09-26T11:24:53.117Z,20
2018-09-26T11:25:42.923Z,20
2018-09-26T11:26:34.098Z,20
2018-09-26T11:27:23.343Z,20
2018-09-26T11:28:13.639Z,20.1
2018-09-26T11:29:03.153Z,20.1
2018-09-26T11:29:53.495Z,20.2
2018-09-26T11:30:43.513Z,20.1
2018-09-26T11:31:33.927Z,20.1
2018-09-26T11:32:25.861Z,20.1
2018-09-26T11:33:14.535Z,20.1
2018-09-26T11:34:04.162Z,20
2018-09-26T11:34:53.601Z,20.1
2018-09-26T11:35:43.092Z,20.1
2018-09-26T11:36:33.744Z,20.1
2018-09-26T11:37:24.013Z,20.1
2018-09-26T11:38:14.875Z,20.1
2018-09-26T11:39:04.413Z,20.1
2018-09-26T11:39:54.545Z,20.1
2018-09-26T11:40:44.260Z,20.1
2018-09-26T11:41:34.138Z,20.1
2018-09-26T11:42:24.524Z,20.1
2018-09-26T11:43:14.696Z,20.2
2018-09-26T11:44:04.806Z,20.2
2018-09-26T11:44:56.260Z,20.2
2018-09-26T11:45:44.911Z,20.1
2018-09-26T11:46:34.953Z,20.1
2018-09-26T11:47:23.152Z,20.1
2018-09-26T11:48:14.319Z,20.1
2018-09-26T11:49:04.592Z,20.1
2018-09-26T11:49:54.701Z,20.1
2018-09-26T11:50:44.345Z,20.1
2018-09-26T11:51:34.501Z,20.1
2018-09-26T11:52:24.964Z,20.1
2018-09-26T11:53:15.164Z,20.1
2018-09-26T11:54:05.776Z,20.1
2018-09-26T11:54:54.359Z,20.1
2018-09-26T11:55:43.892Z,20.1
2018-09-26T11:56:35.907Z,20.1
2018-09-26T11:57:23.970Z,20.1
2018-09-26T11:58:16.302Z,20.1
2018-09-26T11:59:04.533Z,20.1
2018-09-26T11:59:54.578Z,20.1
2018-09-26T12:00:45.426Z,20.1